sensor_id;sensor_type;location;lat;lon;timestamp;pressure;altitude;pressure_sealevel;temperature;humidity
5380;BME280;2713;42.680;23.310;2022-07-18T00:00:46;95766.44;;;23.52;39.57
5380;BME280;2713;42.680;23.310;2022-07-18T00:03:13;95763.94;;;23.46;40.27
5380;BME280;2713;42.680;23.310;2022-07-18T00:05:40;95767.03;;;23.43;39.84
5380;BME280;2713;42.680;23.310;2022-07-18T00:08:07;95780.38;;;23.31;39.53
5380;BME280;2713;42.680;23.310;2022-07-18T00:10:34;95773.84;;;23.22;39.80
5380;BME280;2713;42.680;23.310;2022-07-18T00:13:01;95770.47;;;23.10;40.37
5380;BME280;2713;42.680;23.310;2022-07-18T00:15:28;95775.78;;;23.10;40.05
5380;BME280;2713;42.680;23.310;2022-07-18T00:17:56;95766.03;;;23.15;39.98
5380;BME280;2713;42.680;23.310;2022-07-18T00:20:23;95762.94;;;23.18;39.69
5380;BME280;2713;42.680;23.310;2022-07-18T00:22:50;95768.25;;;23.18;39.53
5380;BME280;2713;42.680;23.310;2022-07-18T00:25:17;95770.97;;;23.07;39.45
5380;BME280;2713;42.680;23.310;2022-07-18T00:27:44;95759.69;;;23.00;39.51
5380;BME280;2713;42.680;23.310;2022-07-18T00:30:12;95759.75;;;22.88;39.57
5380;BME280;2713;42.680;23.310;2022-07-18T00:32:39;95769.00;;;23.02;39.57
5380;BME280;2713;42.680;23.310;2022-07-18T00:35:09;95770.63;;;23.03;39.33
5380;BME280;2713;42.680;23.310;2022-07-18T00:37:36;95763.47;;;23.04;39.33
5380;BME280;2713;42.680;23.310;2022-07-18T00:40:04;95760.00;;;22.87;39.30
5380;BME280;2713;42.680;23.310;2022-07-18T00:42:31;95759.44;;;22.56;39.38
5380;BME280;2713;42.680;23.310;2022-07-18T00:44:58;95759.69;;;22.43;39.51
5380;BME280;2713;42.680;23.310;2022-07-18T00:47:25;95767.03;;;22.53;39.60
5380;BME280;2713;42.680;23.310;2022-07-18T00:49:52;95768.59;;;22.65;39.16
5380;BME280;2713;42.680;23.310;2022-07-18T00:52:20;95766.53;;;22.67;38.67
5380;BME280;2713;42.680;23.310;2022-07-18T00:54:47;95766.09;;;22.70;38.44
5380;BME280;2713;42.680;23.310;2022-07-18T00:57:14;95769.28;;;22.72;38.79
5380;BME280;2713;42.680;23.310;2022-07-18T00:59:42;95769.50;;;22.71;38.16
5380;BME280;2713;42.680;23.310;2022-07-18T01:02:26;95774.47;;;22.67;38.05
5380;BME280;2713;42.680;23.310;2022-07-18T01:04:53;95778.75;;;22.68;38.34
5380;BME280;2713;42.680;23.310;2022-07-18T01:07:22;95773.63;;;22.79;38.02
5380;BME280;2713;42.680;23.310;2022-07-18T01:09:49;95770.66;;;22.75;38.05
5380;BME280;2713;42.680;23.310;2022-07-18T01:12:16;95772.75;;;22.73;38.11
5380;BME280;2713;42.680;23.310;2022-07-18T01:14:44;95774.59;;;22.72;37.69
5380;BME280;2713;42.680;23.310;2022-07-18T01:17:13;95771.63;;;22.57;37.82
5380;BME280;2713;42.680;23.310;2022-07-18T01:19:41;95769.91;;;22.51;37.85
5380;BME280;2713;42.680;23.310;2022-07-18T01:22:10;95770.50;;;22.53;37.91
5380;BME280;2713;42.680;23.310;2022-07-18T01:24:37;95768.06;;;22.52;37.79
5380;BME280;2713;42.680;23.310;2022-07-18T01:27:05;95757.88;;;22.72;37.76
5380;BME280;2713;42.680;23.310;2022-07-18T01:29:32;95764.94;;;22.66;37.34
5380;BME280;2713;42.680;23.310;2022-07-18T01:34:27;95764.44;;;22.30;37.87
5380;BME280;2713;42.680;23.310;2022-07-18T01:36:55;95768.09;;;22.40;38.21
5380;BME280;2713;42.680;23.310;2022-07-18T01:39:23;95762.25;;;22.38;37.80
5380;BME280;2713;42.680;23.310;2022-07-18T01:41:55;95757.56;;;22.29;38.13
5380;BME280;2713;42.680;23.310;2022-07-18T01:44:22;95756.13;;;22.38;37.73
5380;BME280;2713;42.680;23.310;2022-07-18T01:46:49;95750.31;;;22.24;38.16
5380;BME280;2713;42.680;23.310;2022-07-18T01:49:16;95750.56;;;22.11;38.23
5380;BME280;2713;42.680;23.310;2022-07-18T01:51:45;95744.81;;;22.14;38.37
5380;BME280;2713;42.680;23.310;2022-07-18T01:54:12;95749.88;;;22.15;37.97
5380;BME280;2713;42.680;23.310;2022-07-18T01:56:41;95749.69;;;22.05;38.09
5380;BME280;2713;42.680;23.310;2022-07-18T01:59:08;95755.72;;;22.29;38.00
5380;BME280;2713;42.680;23.310;2022-07-18T02:01:35;95749.13;;;22.32;37.38
5380;BME280;2713;42.680;23.310;2022-07-18T02:04:02;95750.41;;;22.29;37.55
5380;BME280;2713;42.680;23.310;2022-07-18T02:06:29;95746.84;;;22.23;37.37
5380;BME280;2713;42.680;23.310;2022-07-18T02:08:56;95752.25;;;22.29;37.88
5380;BME280;2713;42.680;23.310;2022-07-18T02:11:23;95753.97;;;22.23;38.04
5380;BME280;2713;42.680;23.310;2022-07-18T02:13:51;95756.63;;;22.23;37.77
5380;BME280;2713;42.680;23.310;2022-07-18T02:16:18;95758.75;;;22.09;37.94
5380;BME280;2713;42.680;23.310;2022-07-18T02:18:46;95764.97;;;22.03;37.56
5380;BME280;2713;42.680;23.310;2022-07-18T02:21:13;95755.19;;;22.15;37.87
5380;BME280;2713;42.680;23.310;2022-07-18T02:23:40;95757.50;;;22.12;37.86
5380;BME280;2713;42.680;23.310;2022-07-18T02:26:07;95754.94;;;22.17;37.42
5380;BME280;2713;42.680;23.310;2022-07-18T02:28:35;95763.22;;;22.20;37.48
5380;BME280;2713;42.680;23.310;2022-07-18T02:31:05;95762.22;;;21.98;37.70
5380;BME280;2713;42.680;23.310;2022-07-18T02:33:32;95764.41;;;21.90;37.98
5380;BME280;2713;42.680;23.310;2022-07-18T02:35:59;95772.66;;;21.82;37.96
5380;BME280;2713;42.680;23.310;2022-07-18T02:38:26;95772.78;;;21.87;37.91
5380;BME280;2713;42.680;23.310;2022-07-18T02:40:53;95777.78;;;21.95;37.69
5380;BME280;2713;42.680;23.310;2022-07-18T02:43:20;95783.16;;;21.88;37.58
5380;BME280;2713;42.680;23.310;2022-07-18T02:45:47;95785.22;;;21.86;38.11
5380;BME280;2713;42.680;23.310;2022-07-18T02:48:15;95786.63;;;21.77;37.66
5380;BME280;2713;42.680;23.310;2022-07-18T02:50:42;95788.66;;;21.75;37.92
5380;BME280;2713;42.680;23.310;2022-07-18T02:53:09;95787.66;;;21.76;37.92
5380;BME280;2713;42.680;23.310;2022-07-18T02:55:37;95791.44;;;21.68;38.24
5380;BME280;2713;42.680;23.310;2022-07-18T02:58:03;95793.19;;;21.74;37.50
5380;BME280;2713;42.680;23.310;2022-07-18T03:00:31;95792.91;;;21.41;38.29
5380;BME280;2713;42.680;23.310;2022-07-18T03:02:58;95796.75;;;21.57;37.72
5380;BME280;2713;42.680;23.310;2022-07-18T03:05:27;95791.81;;;21.60;37.94
5380;BME280;2713;42.680;23.310;2022-07-18T03:07:54;95793.97;;;21.52;37.95
5380;BME280;2713;42.680;23.310;2022-07-18T03:10:21;95802.38;;;21.60;37.83
5380;BME280;2713;42.680;23.310;2022-07-18T03:12:48;95797.44;;;21.64;37.35
5380;BME280;2713;42.680;23.310;2022-07-18T03:15:15;95798.69;;;21.61;37.45
5380;BME280;2713;42.680;23.310;2022-07-18T03:17:42;95797.44;;;21.64;37.57
5380;BME280;2713;42.680;23.310;2022-07-18T03:20:10;95799.63;;;21.67;37.73
5380;BME280;2713;42.680;23.310;2022-07-18T03:22:39;95793.97;;;21.63;37.35
5380;BME280;2713;42.680;23.310;2022-07-18T03:25:06;95799.03;;;21.65;36.92
5380;BME280;2713;42.680;23.310;2022-07-18T03:27:33;95799.94;;;21.59;36.84
5380;BME280;2713;42.680;23.310;2022-07-18T03:30:00;95797.56;;;21.57;36.39
5380;BME280;2713;42.680;23.310;2022-07-18T03:32:27;95791.56;;;21.50;36.88
5380;BME280;2713;42.680;23.310;2022-07-18T03:34:54;95790.53;;;21.40;36.84
5380;BME280;2713;42.680;23.310;2022-07-18T03:37:21;95792.22;;;21.34;37.08
5380;BME280;2713;42.680;23.310;2022-07-18T03:39:50;95783.97;;;21.42;36.90
5380;BME280;2713;42.680;23.310;2022-07-18T03:42:17;95791.34;;;21.40;36.82
5380;BME280;2713;42.680;23.310;2022-07-18T03:44:44;95795.66;;;21.35;37.00
5380;BME280;2713;42.680;23.310;2022-07-18T03:47:11;95803.41;;;21.36;36.80
5380;BME280;2713;42.680;23.310;2022-07-18T03:49:38;95796.97;;;21.44;36.61
5380;BME280;2713;42.680;23.310;2022-07-18T03:52:05;95797.84;;;21.38;36.87
5380;BME280;2713;42.680;23.310;2022-07-18T03:54:32;95804.09;;;21.43;36.58
5380;BME280;2713;42.680;23.310;2022-07-18T03:57:00;95808.44;;;21.38;37.03
5380;BME280;2713;42.680;23.310;2022-07-18T03:59:27;95798.91;;;21.37;37.29
5380;BME280;2713;42.680;23.310;2022-07-18T04:01:54;95803.38;;;21.48;37.04
5380;BME280;2713;42.680;23.310;2022-07-18T04:04:21;95809.16;;;21.45;37.01
5380;BME280;2713;42.680;23.310;2022-07-18T04:06:48;95811.91;;;21.61;36.63
5380;BME280;2713;42.680;23.310;2022-07-18T04:09:15;95809.97;;;21.68;36.67
5380;BME280;2713;42.680;23.310;2022-07-18T04:11:42;95817.34;;;21.78;36.51
5380;BME280;2713;42.680;23.310;2022-07-18T04:14:11;95812.16;;;21.83;36.44
5380;BME280;2713;42.680;23.310;2022-07-18T04:16:38;95804.00;;;21.96;35.66
5380;BME280;2713;42.680;23.310;2022-07-18T04:19:05;95811.38;;;21.94;35.97
5380;BME280;2713;42.680;23.310;2022-07-18T04:21:32;95816.78;;;21.88;36.51
5380;BME280;2713;42.680;23.310;2022-07-18T04:23:59;95812.06;;;21.78;36.46
5380;BME280;2713;42.680;23.310;2022-07-18T04:26:26;95803.91;;;21.91;36.32
5380;BME280;2713;42.680;23.310;2022-07-18T04:28:53;95807.34;;;22.03;35.78
5380;BME280;2713;42.680;23.310;2022-07-18T04:31:21;95801.56;;;22.18;35.44
5380;BME280;2713;42.680;23.310;2022-07-18T04:33:48;95800.00;;;21.94;36.04
5380;BME280;2713;42.680;23.310;2022-07-18T04:36:15;95794.69;;;21.94;35.92
5380;BME280;2713;42.680;23.310;2022-07-18T04:38:43;95799.06;;;22.00;36.34
5380;BME280;2713;42.680;23.310;2022-07-18T04:41:11;95800.28;;;22.32;35.04
5380;BME280;2713;42.680;23.310;2022-07-18T04:43:38;95805.66;;;22.37;34.95
5380;BME280;2713;42.680;23.310;2022-07-18T04:46:05;95793.47;;;22.64;34.21
5380;BME280;2713;42.680;23.310;2022-07-18T04:48:33;95787.03;;;23.00;33.96
5380;BME280;2713;42.680;23.310;2022-07-18T04:51:00;95783.56;;;23.45;32.92
5380;BME280;2713;42.680;23.310;2022-07-18T04:53:27;95786.75;;;23.80;32.67
5380;BME280;2713;42.680;23.310;2022-07-18T04:55:54;95783.13;;;24.46;31.88
5380;BME280;2713;42.680;23.310;2022-07-18T04:58:21;95780.72;;;24.93;30.49
5380;BME280;2713;42.680;23.310;2022-07-18T05:00:48;95789.25;;;25.22;30.45
5380;BME280;2713;42.680;23.310;2022-07-18T05:03:16;95787.56;;;25.43;29.67
5380;BME280;2713;42.680;23.310;2022-07-18T05:05:44;95790.00;;;25.49;29.92
5380;BME280;2713;42.680;23.310;2022-07-18T05:08:11;95785.31;;;25.56;30.02
5380;BME280;2713;42.680;23.310;2022-07-18T05:10:40;95790.00;;;25.49;29.26
5380;BME280;2713;42.680;23.310;2022-07-18T05:13:07;95785.09;;;25.63;28.91
5380;BME280;2713;42.680;23.310;2022-07-18T05:15:34;95791.28;;;25.73;29.57
5380;BME280;2713;42.680;23.310;2022-07-18T05:18:01;95791.19;;;26.00;29.08
5380;BME280;2713;42.680;23.310;2022-07-18T05:20:28;95784.66;;;26.18;29.16
5380;BME280;2713;42.680;23.310;2022-07-18T05:22:57;95781.66;;;26.66;28.30
5380;BME280;2713;42.680;23.310;2022-07-18T05:25:24;95782.03;;;26.95;27.52
5380;BME280;2713;42.680;23.310;2022-07-18T05:27:52;95780.16;;;27.06;27.81
5380;BME280;2713;42.680;23.310;2022-07-18T05:30:20;95789.69;;;26.77;27.38
5380;BME280;2713;42.680;23.310;2022-07-18T05:32:49;95789.22;;;26.90;28.18
5380;BME280;2713;42.680;23.310;2022-07-18T05:35:17;95798.75;;;26.76;27.91
5380;BME280;2713;42.680;23.310;2022-07-18T05:37:44;95791.88;;;26.85;27.83
5380;BME280;2713;42.680;23.310;2022-07-18T05:40:14;95786.88;;;27.08;27.38
5380;BME280;2713;42.680;23.310;2022-07-18T05:42:41;95788.72;;;27.23;27.57
5380;BME280;2713;42.680;23.310;2022-07-18T05:45:09;95797.59;;;27.49;26.83
5380;BME280;2713;42.680;23.310;2022-07-18T05:47:37;95791.41;;;27.28;27.14
5380;BME280;2713;42.680;23.310;2022-07-18T05:50:04;95791.63;;;26.96;28.00
5380;BME280;2713;42.680;23.310;2022-07-18T05:52:32;95791.13;;;27.19;27.87
5380;BME280;2713;42.680;23.310;2022-07-18T05:54:59;95799.44;;;27.38;28.40
5380;BME280;2713;42.680;23.310;2022-07-18T05:57:27;95790.91;;;27.87;27.43
5380;BME280;2713;42.680;23.310;2022-07-18T05:59:54;95796.19;;;28.12;27.92
5380;BME280;2713;42.680;23.310;2022-07-18T06:02:21;95790.78;;;28.37;27.38
5380;BME280;2713;42.680;23.310;2022-07-18T06:04:48;95791.25;;;28.59;25.84
5380;BME280;2713;42.680;23.310;2022-07-18T06:07:15;95795.44;;;28.81;25.52
5380;BME280;2713;42.680;23.310;2022-07-18T06:09:42;95793.81;;;28.90;28.02
5380;BME280;2713;42.680;23.310;2022-07-18T06:12:10;95788.97;;;28.92;27.14
5380;BME280;2713;42.680;23.310;2022-07-18T06:14:38;95795.69;;;29.33;26.24
5380;BME280;2713;42.680;23.310;2022-07-18T06:17:05;95792.38;;;29.46;25.11
5380;BME280;2713;42.680;23.310;2022-07-18T06:19:32;95795.19;;;29.26;26.01
5380;BME280;2713;42.680;23.310;2022-07-18T06:22:00;95789.38;;;29.14;25.55
5380;BME280;2713;42.680;23.310;2022-07-18T06:24:28;95791.44;;;29.27;24.71
5380;BME280;2713;42.680;23.310;2022-07-18T06:26:55;95762.00;;;29.27;24.48
5380;BME280;2713;42.680;23.310;2022-07-18T06:29:22;95785.34;;;29.55;25.30
5380;BME280;2713;42.680;23.310;2022-07-18T06:31:50;95784.25;;;29.56;24.18
5380;BME280;2713;42.680;23.310;2022-07-18T06:34:17;95786.94;;;29.56;24.81
5380;BME280;2713;42.680;23.310;2022-07-18T06:36:44;95784.63;;;29.74;24.38
5380;BME280;2713;42.680;23.310;2022-07-18T06:39:11;95777.34;;;30.08;22.69
5380;BME280;2713;42.680;23.310;2022-07-18T06:41:40;95772.28;;;30.06;23.49
5380;BME280;2713;42.680;23.310;2022-07-18T06:44:12;95773.41;;;30.00;22.36
5380;BME280;2713;42.680;23.310;2022-07-18T06:46:39;95771.59;;;29.96;22.56
5380;BME280;2713;42.680;23.310;2022-07-18T06:49:07;95766.69;;;30.03;22.73
5380;BME280;2713;42.680;23.310;2022-07-18T06:51:34;95768.28;;;30.28;21.88
5380;BME280;2713;42.680;23.310;2022-07-18T06:54:02;95766.41;;;30.28;21.91
5380;BME280;2713;42.680;23.310;2022-07-18T06:56:29;95758.94;;;30.49;22.08
5380;BME280;2713;42.680;23.310;2022-07-18T06:58:56;95764.25;;;30.30;22.64
5380;BME280;2713;42.680;23.310;2022-07-18T07:01:23;95755.28;;;30.63;22.01
5380;BME280;2713;42.680;23.310;2022-07-18T07:03:50;95752.63;;;30.58;22.02
5380;BME280;2713;42.680;23.310;2022-07-18T07:06:18;95753.00;;;30.52;22.54
5380;BME280;2713;42.680;23.310;2022-07-18T07:08:45;95750.03;;;30.53;22.19
5380;BME280;2713;42.680;23.310;2022-07-18T07:11:13;95747.03;;;30.31;22.70
5380;BME280;2713;42.680;23.310;2022-07-18T07:13:40;95753.16;;;30.60;22.28
5380;BME280;2713;42.680;23.310;2022-07-18T07:16:07;95756.00;;;30.69;21.96
5380;BME280;2713;42.680;23.310;2022-07-18T07:18:34;95753.66;;;30.62;22.38
5380;BME280;2713;42.680;23.310;2022-07-18T07:21:01;95754.00;;;31.17;21.83
5380;BME280;2713;42.680;23.310;2022-07-18T07:23:30;95756.66;;;31.36;21.33
5380;BME280;2713;42.680;23.310;2022-07-18T07:25:57;95747.91;;;31.30;21.60
5380;BME280;2713;42.680;23.310;2022-07-18T07:28:24;95751.94;;;30.72;21.69
5380;BME280;2713;42.680;23.310;2022-07-18T07:30:51;95753.00;;;31.13;21.19
5380;BME280;2713;42.680;23.310;2022-07-18T07:33:18;95749.34;;;31.04;21.14
5380;BME280;2713;42.680;23.310;2022-07-18T07:35:45;95753.78;;;31.13;20.51
5380;BME280;2713;42.680;23.310;2022-07-18T07:38:12;95752.81;;;31.60;20.75
5380;BME280;2713;42.680;23.310;2022-07-18T07:40:46;95748.56;;;31.22;20.97
5380;BME280;2713;42.680;23.310;2022-07-18T07:43:15;95745.50;;;31.29;20.93
5380;BME280;2713;42.680;23.310;2022-07-18T07:45:43;95742.25;;;31.45;19.82
5380;BME280;2713;42.680;23.310;2022-07-18T07:48:12;95750.88;;;31.29;20.71
5380;BME280;2713;42.680;23.310;2022-07-18T07:50:39;95754.19;;;31.72;19.31
5380;BME280;2713;42.680;23.310;2022-07-18T07:53:07;95750.44;;;31.73;19.14
5380;BME280;2713;42.680;23.310;2022-07-18T07:55:34;95750.84;;;31.93;19.37
5380;BME280;2713;42.680;23.310;2022-07-18T07:58:02;95743.41;;;32.04;19.15
5380;BME280;2713;42.680;23.310;2022-07-18T08:00:30;95755.31;;;31.71;19.69
5380;BME280;2713;42.680;23.310;2022-07-18T08:02:59;95757.50;;;31.50;20.08
5380;BME280;2713;42.680;23.310;2022-07-18T08:05:29;95756.56;;;31.59;19.69
5380;BME280;2713;42.680;23.310;2022-07-18T08:07:57;95751.94;;;31.79;19.80
5380;BME280;2713;42.680;23.310;2022-07-18T08:10:25;95749.59;;;31.58;19.31
5380;BME280;2713;42.680;23.310;2022-07-18T08:12:52;95753.75;;;31.32;19.43
5380;BME280;2713;42.680;23.310;2022-07-18T08:15:21;95757.13;;;31.05;19.80
5380;BME280;2713;42.680;23.310;2022-07-18T08:17:49;95749.94;;;31.71;20.80
5380;BME280;2713;42.680;23.310;2022-07-18T08:20:16;95747.44;;;31.60;19.98
5380;BME280;2713;42.680;23.310;2022-07-18T08:22:54;95755.13;;;31.81;19.94
5380;BME280;2713;42.680;23.310;2022-07-18T08:25:21;95735.53;;;31.94;20.37
5380;BME280;2713;42.680;23.310;2022-07-18T08:27:49;95748.00;;;32.44;19.63
5380;BME280;2713;42.680;23.310;2022-07-18T08:30:16;95754.97;;;32.04;20.16
5380;BME280;2713;42.680;23.310;2022-07-18T08:32:44;95748.47;;;31.78;18.93
5380;BME280;2713;42.680;23.310;2022-07-18T08:35:11;95755.91;;;31.67;19.06
5380;BME280;2713;42.680;23.310;2022-07-18T08:37:38;95754.47;;;32.16;19.92
5380;BME280;2713;42.680;23.310;2022-07-18T08:40:07;95755.38;;;32.52;18.50
5380;BME280;2713;42.680;23.310;2022-07-18T08:42:35;95756.69;;;32.28;19.59
5380;BME280;2713;42.680;23.310;2022-07-18T08:45:02;95759.88;;;32.16;19.34
5380;BME280;2713;42.680;23.310;2022-07-18T08:47:30;95753.44;;;31.71;19.73
5380;BME280;2713;42.680;23.310;2022-07-18T08:50:00;95753.97;;;32.00;20.75
5380;BME280;2713;42.680;23.310;2022-07-18T08:52:28;95756.13;;;31.85;19.42
5380;BME280;2713;42.680;23.310;2022-07-18T08:54:55;95752.47;;;31.11;21.04
5380;BME280;2713;42.680;23.310;2022-07-18T08:57:23;95750.47;;;30.79;21.61
5380;BME280;2713;42.680;23.310;2022-07-18T08:59:50;95749.13;;;30.82;21.56
5380;BME280;2713;42.680;23.310;2022-07-18T09:02:17;95750.94;;;30.67;21.67
5380;BME280;2713;42.680;23.310;2022-07-18T09:04:44;95748.38;;;30.76;21.65
5380;BME280;2713;42.680;23.310;2022-07-18T09:07:24;95739.56;;;31.13;21.66
5380;BME280;2713;42.680;23.310;2022-07-18T09:09:52;95734.06;;;31.55;21.23
5380;BME280;2713;42.680;23.310;2022-07-18T09:12:20;95738.34;;;31.56;21.93
5380;BME280;2713;42.680;23.310;2022-07-18T09:14:47;95737.75;;;31.59;21.93
5380;BME280;2713;42.680;23.310;2022-07-18T09:17:16;95731.72;;;30.98;22.07
5380;BME280;2713;42.680;23.310;2022-07-18T09:19:56;95740.31;;;30.34;22.22
5380;BME280;2713;42.680;23.310;2022-07-18T09:22:26;95738.16;;;30.12;23.22
5380;BME280;2713;42.680;23.310;2022-07-18T09:24:57;95739.22;;;29.58;23.09
5380;BME280;2713;42.680;23.310;2022-07-18T09:27:31;95740.22;;;30.20;23.21
5380;BME280;2713;42.680;23.310;2022-07-18T09:30:20;95740.78;;;30.64;23.00
5380;BME280;2713;42.680;23.310;2022-07-18T09:32:49;95739.44;;;30.43;22.71
5380;BME280;2713;42.680;23.310;2022-07-18T09:35:20;95742.88;;;30.67;22.59
5380;BME280;2713;42.680;23.310;2022-07-18T09:38:03;95743.19;;;30.18;23.00
5380;BME280;2713;42.680;23.310;2022-07-18T09:40:33;95731.72;;;30.13;22.96
5380;BME280;2713;42.680;23.310;2022-07-18T09:43:03;95738.94;;;29.60;23.57
5380;BME280;2713;42.680;23.310;2022-07-18T09:45:32;95738.63;;;29.33;23.83
5380;BME280;2713;42.680;23.310;2022-07-18T09:48:00;95737.63;;;29.57;23.58
5380;BME280;2713;42.680;23.310;2022-07-18T09:50:30;95727.66;;;29.92;24.31
5380;BME280;2713;42.680;23.310;2022-07-18T09:53:09;95731.19;;;30.11;23.88
5380;BME280;2713;42.680;23.310;2022-07-18T09:55:42;95732.22;;;29.91;23.83
5380;BME280;2713;42.680;23.310;2022-07-18T09:58:10;95739.88;;;30.03;23.80
5380;BME280;2713;42.680;23.310;2022-07-18T10:00:38;95736.38;;;29.74;23.79
5380;BME280;2713;42.680;23.310;2022-07-18T10:03:06;95739.31;;;29.48;24.22
5380;BME280;2713;42.680;23.310;2022-07-18T10:05:35;95729.44;;;29.05;24.40
5380;BME280;2713;42.680;23.310;2022-07-18T10:08:06;95719.53;;;29.44;23.87
5380;BME280;2713;42.680;23.310;2022-07-18T10:10:34;95718.09;;;29.81;24.48
5380;BME280;2713;42.680;23.310;2022-07-18T10:13:03;95717.56;;;29.55;24.79
5380;BME280;2713;42.680;23.310;2022-07-18T10:15:33;95698.66;;;29.94;24.44
5380;BME280;2713;42.680;23.310;2022-07-18T10:18:02;95712.97;;;29.21;25.59
5380;BME280;2713;42.680;23.310;2022-07-18T10:20:33;95709.13;;;28.99;25.72
5380;BME280;2713;42.680;23.310;2022-07-18T10:23:10;95702.25;;;29.21;25.36
5380;BME280;2713;42.680;23.310;2022-07-18T10:25:40;95699.06;;;29.53;25.80
5380;BME280;2713;42.680;23.310;2022-07-18T10:28:09;95698.50;;;29.56;25.56
5380;BME280;2713;42.680;23.310;2022-07-18T10:30:42;95702.50;;;29.25;25.49
5380;BME280;2713;42.680;23.310;2022-07-18T10:33:41;95697.06;;;29.01;25.58
5380;BME280;2713;42.680;23.310;2022-07-18T10:36:11;95695.03;;;28.88;25.59
5380;BME280;2713;42.680;23.310;2022-07-18T10:39:05;95700.34;;;28.49;25.87
5380;BME280;2713;42.680;23.310;2022-07-18T10:41:33;95693.28;;;28.68;25.92
5380;BME280;2713;42.680;23.310;2022-07-18T10:44:01;95686.03;;;28.74;25.80
5380;BME280;2713;42.680;23.310;2022-07-18T10:47:08;95678.56;;;29.05;25.37
5380;BME280;2713;42.680;23.310;2022-07-18T10:50:02;95686.09;;;29.03;25.91
5380;BME280;2713;42.680;23.310;2022-07-18T10:52:58;95675.22;;;29.28;25.56
5380;BME280;2713;42.680;23.310;2022-07-18T10:55:32;95679.38;;;29.68;25.39
5380;BME280;2713;42.680;23.310;2022-07-18T10:58:18;95683.34;;;29.70;26.25
5380;BME280;2713;42.680;23.310;2022-07-18T11:00:49;95678.09;;;29.32;26.64
5380;BME280;2713;42.680;23.310;2022-07-18T11:03:25;95680.00;;;29.31;27.04
5380;BME280;2713;42.680;23.310;2022-07-18T11:05:55;95672.34;;;29.14;27.13
5380;BME280;2713;42.680;23.310;2022-07-18T11:08:22;95674.06;;;29.00;27.45
5380;BME280;2713;42.680;23.310;2022-07-18T11:11:20;95673.19;;;29.10;27.31
5380;BME280;2713;42.680;23.310;2022-07-18T11:13:47;95669.47;;;28.13;30.54
5380;BME280;2713;42.680;23.310;2022-07-18T11:16:20;95661.97;;;28.20;30.29
5380;BME280;2713;42.680;23.310;2022-07-18T11:19:17;95669.31;;;27.74;30.36
5380;BME280;2713;42.680;23.310;2022-07-18T11:21:57;95660.81;;;28.36;28.70
5380;BME280;2713;42.680;23.310;2022-07-18T11:24:26;95655.53;;;28.70;28.28
5380;BME280;2713;42.680;23.310;2022-07-18T11:26:53;95658.16;;;28.80;27.83
5380;BME280;2713;42.680;23.310;2022-07-18T11:29:20;95654.31;;;28.91;28.00
5380;BME280;2713;42.680;23.310;2022-07-18T11:31:49;95653.88;;;29.13;27.31
5380;BME280;2713;42.680;23.310;2022-07-18T11:34:18;95659.34;;;28.98;27.79
5380;BME280;2713;42.680;23.310;2022-07-18T11:36:47;95652.16;;;29.22;27.16
5380;BME280;2713;42.680;23.310;2022-07-18T11:39:16;95636.59;;;29.29;27.40
5380;BME280;2713;42.680;23.310;2022-07-18T11:41:54;95651.38;;;29.21;29.59
5380;BME280;2713;42.680;23.310;2022-07-18T11:44:21;95634.22;;;29.23;28.20
5380;BME280;2713;42.680;23.310;2022-07-18T11:47:01;95640.47;;;29.13;27.50
5380;BME280;2713;42.680;23.310;2022-07-18T11:49:29;95628.13;;;29.17;28.05
5380;BME280;2713;42.680;23.310;2022-07-18T11:51:56;95634.41;;;29.36;28.41
5380;BME280;2713;42.680;23.310;2022-07-18T11:54:24;95633.44;;;29.27;28.04
5380;BME280;2713;42.680;23.310;2022-07-18T11:56:55;95613.06;;;29.26;28.97
5380;BME280;2713;42.680;23.310;2022-07-18T11:59:22;95626.72;;;29.25;28.42
5380;BME280;2713;42.680;23.310;2022-07-18T12:01:50;95633.91;;;28.66;28.11
5380;BME280;2713;42.680;23.310;2022-07-18T12:04:21;95626.91;;;28.65;27.24
5380;BME280;2713;42.680;23.310;2022-07-18T12:07:17;95619.97;;;28.20;28.27
5380;BME280;2713;42.680;23.310;2022-07-18T12:09:45;95615.09;;;28.33;28.17
5380;BME280;2713;42.680;23.310;2022-07-18T12:12:13;95620.75;;;28.70;28.28
5380;BME280;2713;42.680;23.310;2022-07-18T12:14:40;95615.19;;;28.56;27.57
5380;BME280;2713;42.680;23.310;2022-07-18T12:17:08;95615.38;;;28.70;26.73
5380;BME280;2713;42.680;23.310;2022-07-18T12:19:36;95615.63;;;28.74;28.01
5380;BME280;2713;42.680;23.310;2022-07-18T12:22:05;95609.91;;;28.90;28.16
5380;BME280;2713;42.680;23.310;2022-07-18T12:24:37;95613.75;;;29.08;28.21
5380;BME280;2713;42.680;23.310;2022-07-18T12:27:16;95609.41;;;29.12;29.16
5380;BME280;2713;42.680;23.310;2022-07-18T12:29:57;95608.19;;;29.33;29.70
5380;BME280;2713;42.680;23.310;2022-07-18T12:32:28;95607.97;;;29.53;29.59
5380;BME280;2713;42.680;23.310;2022-07-18T12:34:56;95607.50;;;29.70;28.49
5380;BME280;2713;42.680;23.310;2022-07-18T12:37:24;95613.16;;;29.68;28.17
5380;BME280;2713;42.680;23.310;2022-07-18T12:39:58;95608.50;;;29.55;28.78
5380;BME280;2713;42.680;23.310;2022-07-18T12:42:30;95607.69;;;29.55;28.20
5380;BME280;2713;42.680;23.310;2022-07-18T12:44:58;95602.78;;;29.38;28.12
5380;BME280;2713;42.680;23.310;2022-07-18T12:47:25;95593.94;;;29.38;28.29
5380;BME280;2713;42.680;23.310;2022-07-18T12:49:52;95596.44;;;29.29;29.00
5380;BME280;2713;42.680;23.310;2022-07-18T12:52:19;95598.78;;;29.36;29.18
5380;BME280;2713;42.680;23.310;2022-07-18T12:54:46;95588.34;;;28.77;29.64
5380;BME280;2713;42.680;23.310;2022-07-18T12:57:15;95602.44;;;29.16;29.35
5380;BME280;2713;42.680;23.310;2022-07-18T12:59:42;95600.72;;;29.25;28.92
5380;BME280;2713;42.680;23.310;2022-07-18T13:02:10;95597.31;;;29.19;28.63
5380;BME280;2713;42.680;23.310;2022-07-18T13:04:37;95588.34;;;29.05;29.30
5380;BME280;2713;42.680;23.310;2022-07-18T13:07:04;95595.72;;;28.90;29.88
5380;BME280;2713;42.680;23.310;2022-07-18T13:09:31;95602.31;;;28.25;30.81
5380;BME280;2713;42.680;23.310;2022-07-18T13:11:58;95592.25;;;28.01;30.92
5380;BME280;2713;42.680;23.310;2022-07-18T13:14:27;95595.06;;;28.30;30.78
5380;BME280;2713;42.680;23.310;2022-07-18T13:16:54;95590.00;;;28.29;30.95
5380;BME280;2713;42.680;23.310;2022-07-18T13:19:21;95596.75;;;28.55;30.01
5380;BME280;2713;42.680;23.310;2022-07-18T13:21:48;95584.81;;;28.81;29.41